Time;durP1;ratioP1;P1;durP2;ratioP2;P2;SDS_P1;SDS_P2;PMS_P1;PMS_P2;Temp;Humidity;BMP_temperature;BMP_pressure;BME280_temperature;BME280_humidity;BME280_pressure;Samples;Min_cycle;Max_cycle;Signal;HPM_P1;HPM_P2
2024/02/28 00:01:16;;;;;;;41.60;27.70;;;;;;;11.87;74.94;99994.00;103038;1256;109572;-72
2024/02/28 00:03:44;;;;;;;38.80;26.90;;;;;;;11.85;74.98;99996.54;103197;1260;140149;-71
2024/02/28 00:06:11;;;;;;;41.80;29.00;;;;;;;11.82;75.02;100001.16;102996;1260;97088;-72
2024/02/28 00:08:38;;;;;;;36.50;26.60;;;;;;;11.78;75.21;100001.52;102807;1256;138519;-72
2024/02/28 00:11:06;;;;;;;35.60;26.60;;;;;;;11.82;75.17;100008.83;102991;1256;96427;-72
2024/02/28 00:13:32;;;;;;;35.30;25.70;;;;;;;11.83;75.18;100005.48;103015;1256;110091;-71
2024/02/28 00:16:00;;;;;;;36.40;26.00;;;;;;;11.86;75.24;100007.30;103000;1256;108054;-71
2024/02/28 00:18:27;;;;;;;40.40;26.30;;;;;;;11.89;75.42;100007.02;103030;1259;96328;-70
2024/02/28 00:20:54;;;;;;;35.30;27.00;;;;;;;11.92;75.18;100009.48;102927;1256;138546;-70
2024/02/28 00:23:21;;;;;;;40.60;27.10;;;;;;;11.94;75.20;100010.78;103057;1256;96464;-71
2024/02/28 00:25:48;;;;;;;36.90;27.50;;;;;;;11.95;75.10;100007.42;102963;1258;138872;-71
2024/02/28 00:28:15;;;;;;;36.60;26.50;;;;;;;11.96;75.10;100009.15;103175;1257;107193;-71
2024/02/28 00:30:42;;;;;;;40.40;27.10;;;;;;;11.97;75.19;100013.61;103209;1253;96998;-70
2024/02/28 00:33:09;;;;;;;36.60;26.80;;;;;;;12.00;75.11;100011.05;102991;1256;138481;-71
2024/02/28 00:35:36;;;;;;;40.30;26.70;;;;;;;12.02;75.08;100011.66;102978;1256;96369;-71
2024/02/28 00:38:07;;;;;;;35.50;26.60;;;;;;;12.03;75.15;100013.73;102999;1258;138740;-71
2024/02/28 00:40:34;;;;;;;38.50;27.50;;;;;;;12.04;75.20;100011.23;102964;1258;108187;-71
2024/02/28 00:43:01;;;;;;;41.50;28.40;;;;;;;12.06;75.13;100010.66;103051;1258;96994;-70
2024/02/28 00:45:28;;;;;;;40.40;28.70;;;;;;;12.05;75.16;100007.73;102900;1257;140295;-71
2024/02/28 00:47:56;;;;;;;42.50;29.30;;;;;;;12.04;75.17;100009.33;103003;1258;96350;-71
2024/02/28 00:50:23;;;;;;;41.60;29.80;;;;;;;12.02;75.26;100005.22;102889;1256;139402;-70
2024/02/28 00:52:50;;;;;;;39.70;29.20;;;;;;;12.01;75.30;100005.60;103000;1260;107452;-70
2024/02/28 00:55:18;;;;;;;45.00;31.30;;;;;;;11.99;75.35;100006.20;103047;1256;96482;-69
2024/02/28 00:57:45;;;;;;;41.30;30.10;;;;;;;11.97;75.30;100010.30;102843;1258;139770;-71
2024/02/28 01:00:14;;;;;;;53.00;32.90;;;;;;;11.98;75.29;100013.94;103017;1258;96447;-70
2024/02/28 01:02:42;;;;;;;41.30;30.20;;;;;;;11.94;75.36;100013.38;103916;1255;139354;-70
2024/02/28 01:05:10;;;;;;;44.80;32.80;;;;;;;11.90;75.44;100018.09;104475;1254;107558;-71
2024/02/28 01:07:37;;;;;;;47.70;32.30;;;;;;;11.89;75.59;100015.36;103074;1256;97085;-69
2024/02/28 01:10:04;;;;;;;47.20;33.30;;;;;;;11.89;75.60;100020.09;103005;1258;108054;-70
2024/02/28 01:12:32;;;;;;;48.70;34.20;;;;;;;11.87;75.78;100021.55;103014;1262;96557;-70
2024/02/28 01:14:59;;;;;;;47.60;33.60;;;;;;;11.86;75.76;100022.64;102839;1254;138653;-69
2024/02/28 01:17:26;;;;;;;51.00;34.80;;;;;;;11.85;75.85;100022.33;102981;1259;106653;-70
2024/02/28 01:19:53;;;;;;;52.30;35.60;;;;;;;11.82;76.10;100025.73;102846;1258;139081;-70
2024/02/28 01:22:20;;;;;;;56.40;36.50;;;;;;;11.79;76.26;100029.66;103023;1257;106857;-70
2024/02/28 01:24:47;;;;;;;49.20;36.20;;;;;;;11.75;76.48;100035.73;103033;1256;96466;-69
2024/02/28 01:27:15;;;;;;;53.50;38.20;;;;;;;11.71;76.59;100035.73;102932;1257;138582;-70
2024/02/28 01:29:42;;;;;;;57.50;39.00;;;;;;;11.64;76.68;100032.55;103007;1256;109594;-69
2024/02/28 01:32:09;;;;;;;49.40;37.20;;;;;;;11.60;77.04;100040.37;102880;1254;138903;-72
2024/02/28 01:34:36;;;;;;;56.40;38.80;;;;;;;11.55;77.50;100040.05;103007;1260;108679;-70
2024/02/28 01:37:03;;;;;;;54.80;39.90;;;;;;;11.52;77.78;100040.52;103044;1256;96620;-70
2024/02/28 01:39:30;;;;;;;58.60;40.60;;;;;;;11.47;78.01;100041.02;102960;1259;138463;-70
2024/02/28 01:41:58;;;;;;;59.80;40.90;;;;;;;11.42;78.31;100041.40;103008;1258;106499;-70
2024/02/28 01:44:25;;;;;;;58.40;40.80;;;;;;;11.40;78.48;100034.71;102975;1258;138897;-70
2024/02/28 01:46:54;;;;;;;61.30;41.40;;;;;;;11.39;78.68;100028.14;103002;1256;108185;-71
2024/02/28 01:49:21;;;;;;;55.90;40.50;;;;;;;11.35;78.91;100027.92;103018;1260;96461;-71
2024/02/28 01:51:50;;;;;;;62.40;42.80;;;;;;;11.33;79.44;100037.27;102959;1256;140705;-70
2024/02/28 01:54:19;;;;;;;61.10;42.10;;;;;;;11.30;79.65;100045.17;103040;1256;107375;-69
2024/02/28 01:56:47;;;;;;;57.50;40.70;;;;;;;11.23;79.97;100042.34;103021;1256;138726;-70
2024/02/28 01:59:14;;;;;;;58.10;41.50;;;;;;;11.13;79.96;100040.96;103024;1256;107788;-71
2024/02/28 02:01:42;;;;;;;59.70;41.70;;;;;;;11.05;80.36;100038.49;102798;1260;139265;-70
2024/02/28 02:04:09;;;;;;;59.10;41.90;;;;;;;10.99;80.70;100040.29;103034;1255;110373;-70
2024/02/28 02:06:43;;;;;;;58.20;42.90;;;;;;;10.95;80.98;100038.35;103015;1256;107713;-71
2024/02/28 02:09:10;;;;;;;58.60;41.50;;;;;;;10.90;81.29;100033.79;102955;1256;139748;-71
2024/02/28 02:11:39;;;;;;;63.00;42.30;;;;;;;10.88;81.69;100036.13;103028;1256;107008;-70
2024/02/28 02:14:06;;;;;;;55.40;42.00;;;;;;;10.86;82.05;100038.65;102988;1261;139087;-70
2024/02/28 02:16:33;;;;;;;61.80;43.40;;;;;;;10.84;82.31;100039.06;103044;1255;109977;-71
2024/02/28 02:19:00;;;;;;;59.60;43.50;;;;;;;10.81;82.43;100034.86;102985;1258;106373;-70
2024/02/28 02:21:37;;;;;;;61.90;43.30;;;;;;;10.77;82.69;100039.86;102929;1256;139414;-71
2024/02/28 02:24:05;;;;;;;61.40;44.80;;;;;;;10.73;82.96;100047.98;102997;1260;108289;-70
2024/02/28 02:26:32;;;;;;;61.00;43.50;;;;;;;10.69;83.41;100053.70;103115;1256;139789;-71
2024/02/28 02:28:59;;;;;;;61.20;45.30;;;;;;;10.63;83.57;100050.98;103042;1256;109765;-70
2024/02/28 02:31:26;;;;;;;58.90;43.70;;;;;;;10.56;83.91;100051.55;102977;1254;107319;-71
2024/02/28 02:33:55;;;;;;;61.30;44.20;;;;;;;10.49;84.37;100054.59;102970;1254;139666;-71
2024/02/28 02:36:22;;;;;;;67.70;48.30;;;;;;;10.41;84.68;100048.80;102911;1260;107966;-71
2024/02/28 02:38:49;;;;;;;61.10;44.70;;;;;;;10.37;85.05;100044.94;102983;1258;139030;-69
2024/02/28 02:41:16;;;;;;;65.40;45.00;;;;;;;10.33;85.28;100039.18;103072;1256;109905;-69
2024/02/28 02:43:43;;;;;;;64.10;46.20;;;;;;;10.29;85.62;100030.79;102928;1256;139762;-71
2024/02/28 02:46:10;;;;;;;61.50;44.80;;;;;;;10.27;85.96;100028.23;103061;1260;96507;-70
2024/02/28 02:48:38;;;;;;;65.30;47.30;;;;;;;10.26;86.25;100028.61;102899;1256;107220;-70
2024/02/28 02:51:05;;;;;;;60.30;46.00;;;;;;;10.27;86.53;100027.05;102946;1258;139157;-71
2024/02/28 02:53:32;;;;;;;59.90;44.30;;;;;;;10.27;86.86;100032.05;103013;1259;110407;-69
2024/02/28 02:56:00;;;;;;;63.10;46.20;;;;;;;10.29;87.06;100033.39;102917;1259;138965;-71
2024/02/28 02:58:27;;;;;;;63.00;46.50;;;;;;;10.31;87.53;100026.55;102971;1256;96467;-71
2024/02/28 03:00:54;;;;;;;63.30;47.50;;;;;;;10.34;88.02;100023.48;103068;1258;107851;-73
2024/02/28 03:03:22;;;;;;;63.80;45.80;;;;;;;10.39;88.41;100025.40;102904;1256;138655;-70
2024/02/28 03:05:49;;;;;;;64.10;46.30;;;;;;;10.41;88.40;100033.15;103037;1256;111977;-70
2024/02/28 03:08:17;;;;;;;67.00;47.50;;;;;;;10.43;88.81;100034.65;102887;1258;139148;-71
2024/02/28 03:10:44;;;;;;;64.10;47.40;;;;;;;10.49;88.96;100032.87;103082;1258;96980;-70
2024/02/28 03:13:11;;;;;;;64.80;47.80;;;;;;;10.51;88.98;100025.14;102986;1258;107520;-71
2024/02/28 03:15:38;;;;;;;65.70;48.40;;;;;;;10.53;89.04;100019.16;102858;1258;138979;-70
2024/02/28 03:18:05;;;;;;;68.70;50.60;;;;;;;10.53;89.20;100029.21;103024;1257;110004;-70
2024/02/28 03:20:32;;;;;;;70.60;49.30;;;;;;;10.54;89.39;100032.16;102868;1260;140364;-70
2024/02/28 03:22:59;;;;;;;72.40;51.20;;;;;;;10.54;89.55;100032.70;103071;1259;96981;-70
2024/02/28 03:25:28;;;;;;;69.60;52.80;;;;;;;10.55;89.71;100034.55;102208;1259;1002954;-71
2024/02/28 03:27:55;;;;;;;73.10;53.30;;;;;;;10.57;89.75;100040.73;102911;1256;139115;-70
2024/02/28 03:30:22;;;;;;;73.90;53.90;;;;;;;10.58;89.95;100036.01;102982;1256;109972;-71
2024/02/28 03:32:49;;;;;;;74.40;51.60;;;;;;;10.59;89.89;100039.29;102870;1261;138930;-71
2024/02/28 03:35:16;;;;;;;71.80;53.10;;;;;;;10.60;90.12;100042.40;102991;1256;97803;-70
2024/02/28 03:37:44;;;;;;;68.00;50.30;;;;;;;10.61;90.01;100040.80;102857;1256;139002;-70
2024/02/28 03:40:14;;;;;;;73.50;52.00;;;;;;;10.62;90.15;100039.90;102996;1256;98230;-71
2024/02/28 03:42:41;;;;;;;77.00;53.90;;;;;;;10.62;90.05;100035.04;104436;1254;111559;-69
2024/02/28 03:45:09;;;;;;;68.60;51.80;;;;;;;10.62;90.19;100034.17;104196;1256;139599;-71
2024/02/28 03:47:36;;;;;;;73.00;54.60;;;;;;;10.62;90.07;100033.29;102996;1259;97790;-69
2024/02/28 03:50:03;;;;;;;76.00;53.80;;;;;;;10.63;90.14;100032.40;102855;1256;138836;-70
2024/02/28 03:52:31;;;;;;;77.20;54.50;;;;;;;10.64;90.31;100030.45;102968;1259;96960;-70
2024/02/28 03:54:58;;;;;;;73.60;53.80;;;;;;;10.64;90.29;100031.48;102927;1262;111905;-70
2024/02/28 03:57:25;;;;;;;74.20;55.60;;;;;;;10.65;90.25;100029.35;102843;1258;139052;-70
2024/02/28 03:59:52;;;;;;;71.50;52.50;;;;;;;10.67;90.50;100025.13;103038;1258;98355;-70
2024/02/28 04:02:19;;;;;;;72.90;53.90;;;;;;;10.69;90.37;100027.80;102829;1255;139290;-71
2024/02/28 04:04:46;;;;;;;74.50;56.60;;;;;;;10.70;90.37;100021.86;103057;1262;97793;-71
2024/02/28 04:07:13;;;;;;;76.90;56.10;;;;;;;10.71;90.45;100018.69;103093;1260;112024;-71
2024/02/28 04:09:40;;;;;;;81.20;56.70;;;;;;;10.72;90.45;100019.16;102946;1259;139003;-70
2024/02/28 04:12:08;;;;;;;78.40;56.00;;;;;;;10.71;90.39;100015.55;103054;1267;97766;-71
2024/02/28 04:14:38;;;;;;;75.80;56.60;;;;;;;10.70;90.49;100010.72;102913;1254;138806;-71
2024/02/28 04:17:05;;;;;;;78.90;57.20;;;;;;;10.70;90.52;100006.91;103056;1259;97789;-70
2024/02/28 04:19:37;;;;;;;74.20;56.50;;;;;;;10.69;90.37;100006.60;103003;1260;112000;-70
2024/02/28 04:22:04;;;;;;;76.10;56.60;;;;;;;10.68;90.39;100007.66;103176;1259;107419;-70
2024/02/28 04:24:32;;;;;;;78.20;57.00;;;;;;;10.68;90.49;100006.13;103170;1259;98444;-70
2024/02/28 04:26:59;;;;;;;75.50;57.50;;;;;;;10.68;90.46;100002.29;103052;1259;139341;-71
2024/02/28 04:29:26;;;;;;;75.40;56.80;;;;;;;10.68;90.54;99999.15;103158;1255;98033;-71
2024/02/28 04:31:53;;;;;;;77.70;56.70;;;;;;;10.68;90.56;100004.19;102957;1259;139106;-71
2024/02/28 04:34:20;;;;;;;78.40;55.90;;;;;;;10.66;90.75;100004.27;103099;1259;105830;-71
2024/02/28 04:36:47;;;;;;;80.40;56.70;;;;;;;10.67;90.74;100013.64;103195;1255;98234;-71
2024/02/28 04:39:14;;;;;;;81.40;57.10;;;;;;;10.66;90.74;100025.30;103052;1257;138786;-70
2024/02/28 04:41:41;;;;;;;76.10;54.60;;;;;;;10.65;90.89;100031.77;103185;1254;97893;-71
2024/02/28 04:44:08;;;;;;;78.00;56.90;;;;;;;10.63;90.92;100038.46;103099;1259;139448;-71
2024/02/28 04:46:38;;;;;;;76.00;56.50;;;;;;;10.60;91.05;100044.65;103171;1258;106655;-70
2024/02/28 04:49:05;;;;;;;84.20;59.40;;;;;;;10.54;90.97;100043.45;103142;1260;97802;-70
2024/02/28 04:51:32;;;;;;;80.40;58.40;;;;;;;10.49;91.12;100044.19;103040;1257;139130;-71
2024/02/28 04:53:59;;;;;;;83.60;60.10;;;;;;;10.44;91.18;100045.74;103453;1254;97803;-71
2024/02/28 04:56:26;;;;;;;83.00;58.30;;;;;;;10.40;91.32;100044.64;103090;1258;138991;-72
2024/02/28 04:58:53;;;;;;;81.50;58.20;;;;;;;10.37;91.52;100043.20;103166;1260;107606;-71
2024/02/28 05:01:20;;;;;;;76.60;55.60;;;;;;;10.34;91.72;100046.07;103104;1263;97669;-71
2024/02/28 05:03:48;;;;;;;76.20;56.30;;;;;;;10.31;91.93;100046.88;103027;1260;141717;-71
2024/02/28 05:06:16;;;;;;;75.00;55.60;;;;;;;10.28;92.19;100049.21;104655;1255;96545;-71
2024/02/28 05:08:43;;;;;;;77.50;57.10;;;;;;;10.27;92.47;100050.30;103265;1260;138728;-72
2024/02/28 05:11:10;;;;;;;82.00;56.90;;;;;;;10.25;92.55;100051.10;102968;1259;108062;-70
2024/02/28 05:13:37;;;;;;;78.60;57.90;;;;;;;10.21;92.77;100050.65;102956;1257;97848;-69
2024/02/28 05:16:04;;;;;;;83.00;57.80;;;;;;;10.18;92.86;100053.86;102995;1259;107172;-72
2024/02/28 05:18:32;;;;;;;87.30;59.10;;;;;;;10.15;92.94;100050.34;103000;1254;97814;-72
2024/02/28 05:21:01;;;;;;;86.90;60.60;;;;;;;10.14;93.19;100058.71;102836;1259;139125;-70
2024/02/28 05:23:29;;;;;;;81.00;59.80;;;;;;;10.12;93.23;100064.17;102974;1254;107080;-71
2024/02/28 05:25:56;;;;;;;81.60;59.10;;;;;;;10.06;93.51;100057.27;102897;1260;139124;-71
2024/02/28 05:28:23;;;;;;;84.70;58.20;;;;;;;10.07;93.69;100065.90;103062;1255;106842;-71
2024/02/28 05:30:50;;;;;;;79.50;58.80;;;;;;;10.06;93.80;100065.59;103043;1257;97798;-71
2024/02/28 05:33:17;;;;;;;82.50;58.60;;;;;;;10.03;93.93;100071.20;102917;1260;138809;-71
2024/02/28 05:35:44;;;;;;;79.50;58.00;;;;;;;10.02;94.10;100073.17;102944;1258;107802;-72
2024/02/28 05:38:12;;;;;;;77.80;55.80;;;;;;;10.00;94.22;100069.95;102950;1260;139303;-71
2024/02/28 05:40:39;;;;;;;86.80;58.60;;;;;;;10.00;94.52;100074.47;103064;1258;108307;-71
2024/02/28 05:43:06;;;;;;;80.70;58.50;;;;;;;10.00;94.69;100078.45;103043;1260;97784;-72
2024/02/28 05:45:33;;;;;;;81.50;58.70;;;;;;;10.02;94.74;100078.21;102912;1260;138908;-72
2024/02/28 05:48:00;;;;;;;82.20;60.40;;;;;;;10.03;94.75;100078.18;103063;1260;108972;-72
2024/02/28 05:50:27;;;;;;;83.50;59.10;;;;;;;10.04;94.86;100080.04;102921;1256;138956;-71
2024/02/28 05:52:54;;;;;;;82.40;57.80;;;;;;;10.07;95.04;100082.75;103027;1254;106948;-72
2024/02/28 05:55:24;;;;;;;81.20;58.80;;;;;;;10.11;95.28;100087.33;103015;1255;97799;-72
2024/02/28 05:57:51;;;;;;;82.30;58.50;;;;;;;10.13;95.16;100091.56;102962;1257;138991;-71
2024/02/28 06:00:19;;;;;;;85.50;60.50;;;;;;;10.11;95.10;100092.34;103004;1267;107302;-71
2024/02/28 06:02:46;;;;;;;87.80;60.20;;;;;;;10.11;95.14;100092.01;102923;1257;138942;-72
2024/02/28 06:05:13;;;;;;;80.30;58.20;;;;;;;10.10;95.07;100091.85;103029;1254;108735;-70
2024/02/28 06:07:40;;;;;;;79.50;58.20;;;;;;;10.10;95.20;100093.58;102981;1260;97736;-70
2024/02/28 06:10:10;;;;;;;83.90;59.10;;;;;;;10.12;95.27;100093.02;103142;1257;110076;-70
2024/02/28 06:12:37;;;;;;;79.40;57.60;;;;;;;10.14;95.20;100101.26;103159;1257;107692;-68
2024/02/28 06:15:05;;;;;;;81.70;58.10;;;;;;;10.15;95.30;100105.73;102973;1258;139286;-70
2024/02/28 06:17:32;;;;;;;80.80;59.10;;;;;;;10.16;95.16;100105.72;103160;1258;106994;-71
2024/02/28 06:19:59;;;;;;;82.30;57.60;;;;;;;10.17;95.39;100108.99;102992;1266;140946;-70
2024/02/28 06:22:27;;;;;;;82.80;57.40;;;;;;;10.18;95.42;100111.89;103021;1254;110765;-70
2024/02/28 06:24:54;;;;;;;83.30;57.20;;;;;;;10.18;95.40;100112.08;102961;1260;107365;-71
2024/02/28 06:27:21;;;;;;;83.40;58.50;;;;;;;10.18;95.39;100117.30;102954;1257;140573;-71
2024/02/28 06:29:49;;;;;;;81.70;57.50;;;;;;;10.18;95.54;100116.95;103068;1259;106761;-70
2024/02/28 06:32:16;;;;;;;81.30;55.60;;;;;;;10.20;95.67;100117.23;102817;1254;139068;-72
2024/02/28 06:34:43;;;;;;;82.60;58.90;;;;;;;10.24;95.74;100118.53;102881;1254;112194;-71
2024/02/28 06:37:10;;;;;;;77.10;56.20;;;;;;;10.28;95.79;100116.15;103005;1254;107747;-69
2024/02/28 06:39:37;;;;;;;78.20;55.50;;;;;;;10.30;95.77;100115.90;102826;1261;139084;-71
2024/02/28 06:42:04;;;;;;;78.50;56.70;;;;;;;10.34;95.72;100121.69;103002;1255;108076;-70
2024/02/28 06:44:31;;;;;;;78.30;54.90;;;;;;;10.36;95.63;100128.23;102888;1259;139129;-72
2024/02/28 06:46:58;;;;;;;78.70;55.70;;;;;;;10.36;95.64;100127.36;103002;1254;111254;-70
2024/02/28 06:49:25;;;;;;;81.00;58.10;;;;;;;10.36;95.58;100133.42;102963;1257;107607;-71
2024/02/28 06:51:53;;;;;;;80.30;56.90;;;;;;;10.36;95.71;100133.10;102865;1259;140714;-72
2024/02/28 06:54:21;;;;;;;81.90;56.70;;;;;;;10.36;95.77;100140.88;103028;1259;107816;-67
2024/02/28 06:56:48;;;;;;;78.30;56.70;;;;;;;10.37;95.78;100141.41;102891;1257;139508;-72
2024/02/28 06:59:15;;;;;;;80.40;57.80;;;;;;;10.36;95.92;100141.41;103004;1254;111024;-77
2024/02/28 07:01:42;;;;;;;73.70;56.40;;;;;;;10.32;96.05;100139.12;103006;1257;107797;-73
2024/02/28 07:04:10;;;;;;;74.70;54.60;;;;;;;10.27;95.92;100139.44;103148;1253;98321;-74
2024/02/28 07:06:37;;;;;;;81.80;57.50;;;;;;;10.25;96.18;100139.35;103148;1258;107989;-75
2024/02/28 07:09:04;;;;;;;79.30;56.90;;;;;;;10.22;96.32;100143.42;102978;1254;138970;-76
2024/02/28 07:11:31;;;;;;;80.60;55.10;;;;;;;10.20;96.47;100143.99;103063;1254;110241;-75
2024/02/28 07:14:01;;;;;;;75.90;55.50;;;;;;;10.19;96.71;100141.42;102912;1259;139273;-76
2024/02/28 07:16:29;;;;;;;76.90;55.10;;;;;;;10.20;96.78;100145.55;103071;1264;97726;-77
2024/02/28 07:18:56;;;;;;;79.80;55.60;;;;;;;10.22;96.94;100146.73;103067;1254;107148;-73
2024/02/28 07:21:23;;;;;;;77.30;55.70;;;;;;;10.25;97.10;100151.02;102947;1254;141700;-74
2024/02/28 07:23:50;;;;;;;78.30;55.70;;;;;;;10.26;97.19;100152.33;103039;1259;110200;-75
2024/02/28 07:26:18;;;;;;;77.40;54.50;;;;;;;10.31;97.41;100153.05;102765;1254;139176;-75
2024/02/28 07:28:53;;;;;;;73.90;53.70;;;;;;;10.37;97.47;100152.15;103030;1254;98354;-77
2024/02/28 07:31:20;;;;;;;76.70;55.40;;;;;;;10.42;97.40;100154.11;102981;1259;108006;-76
2024/02/28 07:33:48;;;;;;;72.90;53.00;;;;;;;10.46;97.15;100154.13;102907;1259;139080;-76
2024/02/28 07:36:15;;;;;;;73.40;52.70;;;;;;;10.51;97.34;100154.29;103014;1254;112254;-77
2024/02/28 07:38:43;;;;;;;74.20;52.60;;;;;;;10.61;97.40;100154.84;102860;1258;138898;-75
2024/02/28 07:41:10;;;;;;;67.60;51.80;;;;;;;10.71;97.34;100156.05;102994;1257;97762;-74
2024/02/28 07:43:37;;;;;;;72.40;52.00;;;;;;;10.75;96.76;100154.18;103001;1259;106824;-75
2024/02/28 07:46:07;;;;;;;72.40;52.50;;;;;;;10.74;96.65;100152.11;102952;1260;140376;-75
2024/02/28 07:48:34;;;;;;;74.70;52.60;;;;;;;10.81;96.68;100154.16;103084;1254;112261;-75
2024/02/28 07:51:01;;;;;;;69.70;51.70;;;;;;;10.89;96.58;100157.70;102945;1257;138901;-76
2024/02/28 07:53:28;;;;;;;67.00;50.00;;;;;;;11.06;96.62;100157.61;103094;1261;98319;-75
2024/02/28 07:55:56;;;;;;;62.30;48.00;;;;;;;11.74;97.08;100157.73;102829;1254;139606;-75
2024/02/28 07:58:23;;;;;;;66.10;49.40;;;;;;;12.26;94.75;100153.09;103060;1257;97799;-76
2024/02/28 08:00:50;;;;;;;61.40;47.40;;;;;;;12.27;92.91;100157.73;102857;1257;111136;-75
2024/02/28 08:03:17;;;;;;;60.70;46.70;;;;;;;12.24;92.65;100161.20;102807;1258;139200;-75
2024/02/28 08:05:45;;;;;;;57.90;46.50;;;;;;;12.20;92.42;100164.14;102892;1260;97833;-76
2024/02/28 08:08:12;;;;;;;62.40;47.20;;;;;;;12.16;92.49;100163.59;102863;1254;140723;-75
2024/02/28 08:10:39;;;;;;;64.70;46.90;;;;;;;12.11;92.12;100169.04;102902;1254;97862;-75
2024/02/28 08:13:07;;;;;;;60.60;47.40;;;;;;;12.00;92.17;100172.77;102966;1258;110881;-77
2024/02/28 08:15:34;;;;;;;61.00;46.60;;;;;;;11.89;92.29;100173.55;102887;1258;140046;-76
2024/02/28 08:18:02;;;;;;;63.10;47.60;;;;;;;11.80;92.28;100175.79;103056;1254;97829;-77
2024/02/28 08:20:29;;;;;;;65.80;48.70;;;;;;;11.73;92.62;100174.31;102961;1254;138834;-76
2024/02/28 08:22:57;;;;;;;61.80;46.50;;;;;;;11.68;93.02;100176.58;103046;1260;97879;-75
2024/02/28 08:25:24;;;;;;;64.80;47.00;;;;;;;11.67;93.34;100181.85;103028;1260;112102;-76
2024/02/28 08:27:51;;;;;;;61.30;47.10;;;;;;;11.63;93.34;100181.63;102934;1257;139101;-75
2024/02/28 08:30:18;;;;;;;58.10;44.70;;;;;;;11.63;93.61;100184.27;103041;1254;97807;-76
2024/02/28 08:32:45;;;;;;;60.00;45.10;;;;;;;11.56;93.41;100185.05;102906;1259;139100;-74
2024/02/28 08:35:13;;;;;;;62.30;45.10;;;;;;;11.46;93.45;100179.48;102906;1254;97727;-76
2024/02/28 08:37:41;;;;;;;56.60;45.50;;;;;;;11.44;93.98;100179.73;103016;1259;111265;-75
2024/02/28 08:40:10;;;;;;;62.30;46.00;;;;;;;11.42;94.14;100181.02;103026;1256;108026;-74
2024/02/28 08:42:41;;;;;;;62.50;47.00;;;;;;;11.39;94.23;100176.98;102901;1260;97819;-75
2024/02/28 08:45:10;;;;;;;59.50;45.70;;;;;;;11.38;94.62;100178.04;102660;1256;139146;-75
2024/02/28 08:47:37;;;;;;;59.60;46.50;;;;;;;11.40;94.74;100176.57;102950;1256;97730;-74
2024/02/28 08:50:06;;;;;;;66.10;46.70;;;;;;;11.43;94.83;100179.44;102919;1260;139362;-75
2024/02/28 08:52:32;;;;;;;58.20;43.40;;;;;;;11.45;94.88;100178.99;103071;1254;108326;-76
2024/02/28 08:54:59;;;;;;;61.90;45.90;;;;;;;11.47;94.64;100179.09;103032;1254;97807;-71
2024/02/28 08:57:27;;;;;;;57.10;42.20;;;;;;;11.52;94.82;100177.90;103722;1255;138798;-71
2024/02/28 08:59:54;;;;;;;57.20;43.50;;;;;;;11.53;94.47;100175.96;103560;1254;97751;-72
2024/02/28 09:02:21;;;;;;;57.50;42.40;;;;;;;11.56;94.61;100172.73;104240;1256;138985;-73
2024/02/28 09:04:51;;;;;;;56.40;43.60;;;;;;;11.60;94.71;100169.57;103338;1254;108025;-72
2024/02/28 09:07:20;;;;;;;53.80;42.20;;;;;;;11.71;94.73;100176.11;103111;1254;99026;-72
2024/02/28 09:09:47;;;;;;;54.80;41.60;;;;;;;11.82;94.45;100180.27;104024;1254;138848;-72
2024/02/28 09:12:15;;;;;;;56.50;43.70;;;;;;;11.89;94.09;100178.27;104535;1255;95851;-72
2024/02/28 09:14:42;;;;;;;54.50;42.90;;;;;;;11.96;94.15;100175.34;104451;1254;139367;-73
2024/02/28 09:17:09;;;;;;;55.00;41.10;;;;;;;12.06;93.91;100184.19;104330;1255;107298;-72
2024/02/28 09:19:36;;;;;;;58.00;41.70;;;;;;;12.16;93.48;100181.92;103192;1256;98355;-71
2024/02/28 09:22:03;;;;;;;54.30;39.70;;;;;;;12.26;93.31;100180.12;103555;1254;138869;-72
2024/02/28 09:24:31;;;;;;;51.10;39.70;;;;;;;12.36;93.09;100182.10;102889;1256;97899;-72
2024/02/28 09:26:58;;;;;;;53.80;40.10;;;;;;;12.46;92.62;100183.81;104360;1254;138716;-72
2024/02/28 09:29:25;;;;;;;49.80;38.40;;;;;;;12.53;92.42;100185.97;104453;1254;107626;-72
2024/02/28 09:31:53;;;;;;;49.90;38.60;;;;;;;12.54;91.57;100182.41;103891;1255;139492;-71
2024/02/28 09:34:20;;;;;;;52.40;39.50;;;;;;;12.52;91.37;100184.64;103756;1254;107987;-72
2024/02/28 09:36:47;;;;;;;49.50;38.20;;;;;;;12.48;91.26;100185.34;104525;1254;96214;-73
2024/02/28 09:39:17;;;;;;;48.10;38.50;;;;;;;12.49;91.25;100184.06;103753;1254;138748;-73
2024/02/28 09:41:45;;;;;;;48.30;38.10;;;;;;;12.48;91.01;100187.20;103446;1258;108315;-72
2024/02/28 09:44:15;;;;;;;51.10;38.30;;;;;;;12.44;90.68;100186.88;102755;1254;139512;-72
2024/02/28 09:46:42;;;;;;;51.10;38.80;;;;;;;12.43;90.84;100193.40;104068;1254;107689;-70
2024/02/28 09:49:10;;;;;;;54.30;39.90;;;;;;;12.40;90.87;100193.30;103967;1254;97805;-70
2024/02/28 09:51:38;;;;;;;52.10;41.60;;;;;;;12.37;90.88;100196.72;103004;1254;139428;-71
2024/02/28 09:54:06;;;;;;;51.40;39.90;;;;;;;12.33;90.97;100199.16;103058;1258;107357;-70
2024/02/28 09:56:33;;;;;;;56.60;42.30;;;;;;;12.30;91.11;100197.90;103457;1257;139986;-70
2024/02/28 09:59:02;;;;;;;51.70;41.20;;;;;;;12.29;91.47;100202.11;103403;1256;107497;-70
2024/02/28 10:01:30;;;;;;;59.30;43.20;;;;;;;12.30;91.52;100205.23;103568;1254;97837;-69
2024/02/28 10:04:00;;;;;;;53.90;43.90;;;;;;;12.29;91.49;100202.65;103191;1256;139855;-70
2024/02/28 10:06:27;;;;;;;57.30;42.50;;;;;;;12.32;91.65;100199.39;103502;1254;108185;-69
2024/02/28 10:08:54;;;;;;;55.80;42.20;;;;;;;12.33;91.36;100197.44;103016;1254;139099;-69
2024/02/28 10:11:22;;;;;;;65.10;44.70;;;;;;;12.31;91.41;100205.16;103162;1256;109104;-68
2024/02/28 10:13:49;;;;;;;57.70;43.70;;;;;;;12.24;91.13;100201.80;102805;1254;139053;-69
2024/02/28 10:16:17;;;;;;;57.70;44.50;;;;;;;12.21;91.21;100205.41;103020;1259;112421;-70
2024/02/28 10:18:45;;;;;;;59.30;44.50;;;;;;;12.17;91.29;100204.36;102855;1257;108456;-69
2024/02/28 10:21:12;;;;;;;57.30;44.00;;;;;;;12.07;91.22;100211.70;103050;1254;139484;-69
2024/02/28 10:23:40;;;;;;;59.20;44.20;;;;;;;11.99;91.48;100214.96;102994;1256;107783;-70
2024/02/28 10:26:09;;;;;;;59.20;44.80;;;;;;;11.92;91.78;100214.00;102960;1254;140830;-71
2024/02/28 10:28:39;;;;;;;62.80;45.70;;;;;;;11.87;92.09;100220.67;104038;1254;111805;-75
2024/02/28 10:31:07;;;;;;;61.90;44.40;;;;;;;11.81;92.07;100220.88;103161;1254;107950;-72
2024/02/28 10:33:35;;;;;;;59.20;44.00;;;;;;;11.79;92.49;100223.73;103018;1254;138893;-72
2024/02/28 10:36:05;;;;;;;62.20;45.20;;;;;;;11.73;92.61;100221.31;103657;1258;151133;-68
2024/02/28 10:38:34;;;;;;;61.00;45.50;;;;;;;11.77;93.10;100219.45;103134;1256;139053;-68
2024/02/28 10:41:02;;;;;;;65.00;46.10;;;;;;;11.82;93.18;100218.59;103111;1256;111423;-68
2024/02/28 10:43:30;;;;;;;66.90;46.80;;;;;;;11.84;93.14;100217.13;104460;1254;108424;-68
2024/02/28 10:45:59;;;;;;;64.50;45.80;;;;;;;11.88;93.39;100218.55;103084;1259;139729;-69
2024/02/28 10:48:29;;;;;;;60.90;45.60;;;;;;;11.91;93.32;100215.09;104382;1254;109538;-68
2024/02/28 10:50:57;;;;;;;61.30;45.50;;;;;;;11.92;93.18;100217.88;103041;1259;139011;-68
2024/02/28 10:53:32;;;;;;;68.00;46.40;;;;;;;11.93;93.14;100218.67;102990;1259;111775;-68
2024/02/28 10:56:03;;;;;;;64.30;46.30;;;;;;;11.96;93.16;100221.88;103200;1259;139698;-69
2024/02/28 10:58:35;;;;;;;58.30;44.70;;;;;;;11.99;93.25;100222.98;104474;1254;96419;-69